createdAt,value
2019-05-17T00:00:40.258Z,44.9
2019-05-17T00:10:43.570Z,44.9
2019-05-17T00:20:47.225Z,44.9
2019-05-17T00:30:50.702Z,44.9
2019-05-17T00:40:56.615Z,45
2019-05-17T00:51:02.627Z,44.9
2019-05-17T01:01:08.684Z,44.9
2019-05-17T01:11:12.074Z,44.9
2019-05-17T01:21:17.076Z,44.9
2019-05-17T01:31:20.424Z,44.9
2019-05-17T01:41:23.765Z,44.9
2019-05-17T01:51:27.102Z,44.9
2019-05-17T02:01:30.437Z,44.9
2019-05-17T02:11:33.764Z,44.9
2019-05-17T02:21:39.284Z,44.9
2019-05-17T02:31:43.865Z,44.8
2019-05-17T02:41:47.287Z,44.8
2019-05-17T02:51:53.014Z,44.8
2019-05-17T03:01:56.419Z,44.8
2019-05-17T03:12:03.904Z,44.8
2019-05-17T03:22:08.254Z,44.7
2019-05-17T03:32:18.110Z,44.7
2019-05-17T03:42:22.786Z,44.7
2019-05-17T03:52:26.198Z,44.7
2019-05-17T04:02:32.837Z,44.7
2019-05-17T04:12:36.227Z,44.7
2019-05-17T04:22:39.568Z,44.7
2019-05-17T04:32:44.735Z,44.7
2019-05-17T04:42:48.183Z,44.7
2019-05-17T04:52:54.043Z,44.6
2019-05-17T05:02:57.427Z,44.6
2019-05-17T05:13:03.637Z,44.6
2019-05-17T05:23:07.033Z,44.6
2019-05-17T05:33:13.206Z,44.6
2019-05-17T05:43:16.636Z,44.6
2019-05-17T05:53:22.024Z,44.6
2019-05-17T06:03:25.420Z,44.6
2019-05-17T06:13:28.756Z,44.6
2019-05-17T06:23:32.084Z,44.7
2019-05-17T06:33:35.437Z,44.7
2019-05-17T06:43:38.818Z,44.7
2019-05-17T06:53:43.746Z,44.7
2019-05-17T07:03:49.604Z,44.8
2019-05-17T07:13:52.932Z,44.7
2019-05-17T07:23:56.269Z,44.8
2019-05-17T07:34:00.110Z,44.8
2019-05-17T07:44:03.534Z,44.8
2019-05-17T07:54:06.889Z,44.9
2019-05-17T08:04:10.271Z,44.9
2019-05-17T08:14:30.988Z,44.9
2019-05-17T08:24:36.988Z,44.9
2019-05-17T08:34:40.330Z,44.9
2019-05-17T08:44:43.668Z,44.9
2019-05-17T08:54:49.757Z,44.9
2019-05-17T09:04:53.138Z,44.9
2019-05-17T09:14:56.470Z,45
2019-05-17T09:24:59.826Z,45
2019-05-17T09:35:03.151Z,45
2019-05-17T09:45:06.472Z,45
2019-05-17T09:55:10.324Z,45.1
2019-05-17T10:05:13.692Z,45.1
2019-05-17T10:15:17.027Z,45.1
2019-05-17T10:25:20.369Z,45
2019-05-17T10:35:23.687Z,45
2019-05-17T10:45:27.036Z,45
2019-05-17T10:55:30.488Z,45
2019-05-17T11:05:33.841Z,45
2019-05-17T11:15:37.230Z,45
2019-05-17T11:25:46.644Z,45.1
2019-05-17T11:35:50.330Z,45
2019-05-17T11:45:53.661Z,45
2019-05-17T11:55:56.977Z,45
2019-05-17T12:06:00.307Z,44.9
2019-05-17T12:16:03.930Z,44.8
2019-05-17T12:26:07.427Z,44.9
2019-05-17T12:36:10.746Z,44.9
2019-05-17T12:46:14.085Z,44.9
2019-05-17T12:56:17.440Z,44.9
2019-05-17T13:06:20.789Z,44.9
2019-05-17T13:16:24.121Z,44.9
2019-05-17T13:26:27.457Z,44.9
2019-05-17T13:36:30.835Z,44.9
2019-05-17T13:46:34.236Z,44.9
2019-05-17T13:56:37.571Z,44.9
2019-05-17T14:06:40.903Z,44.9
2019-05-17T14:16:44.269Z,44.8
2019-05-17T14:26:47.675Z,44.8
2019-05-17T14:36:51.057Z,44.8
2019-05-17T14:46:54.417Z,44.8
2019-05-17T14:56:57.764Z,44.8
2019-05-17T15:07:01.129Z,44.8
2019-05-17T15:17:04.476Z,44.8
2019-05-17T15:27:07.825Z,44.8
2019-05-17T15:37:11.305Z,44.8
2019-05-17T15:47:14.912Z,44.8
2019-05-17T15:57:18.248Z,44.8
2019-05-17T16:07:21.719Z,44.8
2019-05-17T16:17:25.036Z,44.8
2019-05-17T16:27:28.363Z,47.6
2019-05-17T16:37:31.685Z,48.5
2019-05-17T16:47:35.062Z,48.3
2019-05-17T16:57:38.418Z,48.2
2019-05-17T17:07:41.761Z,48
2019-05-17T17:17:45.097Z,48
2019-05-17T17:27:48.440Z,48
2019-05-17T17:37:51.806Z,47.2
2019-05-17T17:47:55.200Z,47.5
2019-05-17T17:57:58.541Z,47.7
2019-05-17T18:08:01.872Z,48
2019-05-17T18:18:05.196Z,48.3
2019-05-17T18:28:08.534Z,48.3
2019-05-17T18:38:11.924Z,48.3
2019-05-17T18:48:15.313Z,48.5
2019-05-17T18:58:18.668Z,48.6
2019-05-17T19:08:22.036Z,48.6
2019-05-17T19:18:25.412Z,48.6
2019-05-17T19:28:28.738Z,48.7
2019-05-17T19:38:32.083Z,48.8
2019-05-17T19:48:35.451Z,48.7
2019-05-17T19:58:38.813Z,48.9
2019-05-17T20:08:42.148Z,48.8
2019-05-17T20:18:45.515Z,48.8
2019-05-17T20:28:48.828Z,48.8
2019-05-17T20:38:52.171Z,48.8
2019-05-17T20:48:55.511Z,48.7
2019-05-17T20:58:58.826Z,48.8
2019-05-17T21:09:02.155Z,48.9
2019-05-17T21:19:05.487Z,48.7
2019-05-17T21:29:08.823Z,48.8
2019-05-17T21:39:12.190Z,48.8
2019-05-17T21:49:15.549Z,48.8
2019-05-17T21:59:18.892Z,48.8
2019-05-17T22:09:22.243Z,48.7
2019-05-17T22:19:25.635Z,48.7
2019-05-17T22:29:28.969Z,48.8
2019-05-17T22:39:32.302Z,48.7
2019-05-17T22:49:35.654Z,48.6
2019-05-17T22:59:39.012Z,48.6
2019-05-17T23:09:42.344Z,48.6
2019-05-17T23:19:45.721Z,48.5
2019-05-17T23:29:49.072Z,48.6
2019-05-17T23:39:52.413Z,48.5
2019-05-17T23:49:55.805Z,48.5
2019-05-17T23:59:59.131Z,48.5
